SWA2761 KLAS-KLAX
Flight info
| Callsign | SWA2761 |
|---|---|
| Flight time | 0h 43m |
| Altitude | 22000 |
| Route | RADYR2 BLAQQ SHTNR ANJLL4 |
| Aircraft | B38M/M-SDE1FGHILORVWXY/HB1 |
Departure
| Time | 2026-05-05 03:10 |
|---|---|
| Airport | Harry Reid International Airport (KLAS) |
Arrival
| Time | 2026-05-05 03:53 |
|---|---|
| Airport | Los Angeles International Airport (KLAX) |
| Time | Latitude | Longitude | Altitude | Speed | Heading |
|---|---|---|---|---|---|
| 2026-05-05 02:53 | 36.08101 | -115.14772 | 2190 ft | 0 kts | 56° |
| 2026-05-05 03:02 | 36.08097 | -115.14778 | 2192 ft | 3 kts | 56° |
| 2026-05-05 03:02 | 36.08087 | -115.14797 | 2192 ft | 3 kts | 56° |
| 2026-05-05 03:02 | 36.08077 | -115.14816 | 2190 ft | 3 kts | 56° |
| 2026-05-05 03:02 | 36.08067 | -115.14834 | 2192 ft | 3 kts | 56° |
| 2026-05-05 03:03 | 36.08056 | -115.14853 | 2192 ft | 3 kts | 56° |
| 2026-05-05 03:03 | 36.08048 | -115.14869 | 2191 ft | 0 kts | 56° |
| 2026-05-05 03:05 | 36.08050 | -115.14863 | 2190 ft | 2 kts | 69° |
| 2026-05-05 03:05 | 36.08016 | -115.14805 | 2191 ft | 15 kts | 150° |
| 2026-05-05 03:05 | 36.07913 | -115.14738 | 2190 ft | 16 kts | 155° |
| 2026-05-05 03:06 | 36.07900 | -115.14731 | 2191 ft | 0 kts | 155° |
| 2026-05-05 03:06 | 36.07899 | -115.14731 | 2191 ft | 1 kts | 155° |
| 2026-05-05 03:06 | 36.07848 | -115.14644 | 2191 ft | 28 kts | 97° |
| 2026-05-05 03:07 | 36.07831 | -115.14375 | 2190 ft | 34 kts | 93° |
| 2026-05-05 03:07 | 36.07827 | -115.14080 | 2192 ft | 35 kts | 91° |
| 2026-05-05 03:07 | 36.07827 | -115.13783 | 2191 ft | 35 kts | 89° |
| 2026-05-05 03:07 | 36.07829 | -115.13471 | 2191 ft | 36 kts | 89° |
| 2026-05-05 03:08 | 36.07828 | -115.13155 | 2193 ft | 37 kts | 90° |
| 2026-05-05 03:08 | 36.07829 | -115.12835 | 2190 ft | 38 kts | 89° |
| 2026-05-05 03:08 | 36.07829 | -115.12505 | 2190 ft | 39 kts | 91° |
| 2026-05-05 03:08 | 36.07788 | -115.12212 | 2190 ft | 31 kts | 121° |
| 2026-05-05 03:09 | 36.07747 | -115.12146 | 2191 ft | 0 kts | 138° |
| 2026-05-05 03:09 | 36.07743 | -115.12142 | 2191 ft | 5 kts | 142° |
| 2026-05-05 03:09 | 36.07638 | -115.12175 | 2195 ft | 26 kts | 263° |
| 2026-05-05 03:09 | 36.07643 | -115.12740 | 2191 ft | 105 kts | 269° |
| 2026-05-05 03:10 | 36.07646 | -115.13931 | 2233 ft | 166 kts | 266° |
| 2026-05-05 03:10 | 36.07659 | -115.15449 | 2895 ft | 181 kts | 265° |
| 2026-05-05 03:10 | 36.07657 | -115.16978 | 4016 ft | 176 kts | 266° |
| 2026-05-05 03:10 | 36.07661 | -115.18583 | 4423 ft | 200 kts | 267° |
| 2026-05-05 03:11 | 36.07636 | -115.20422 | 4783 ft | 226 kts | 262° |
| 2026-05-05 03:11 | 36.07397 | -115.22338 | 5674 ft | 224 kts | 259° |
| 2026-05-05 03:11 | 36.07101 | -115.24257 | 6420 ft | 234 kts | 249° |
| 2026-05-05 03:11 | 36.06145 | -115.25947 | 6907 ft | 251 kts | 219° |
| 2026-05-05 03:12 | 36.04566 | -115.26924 | 7705 ft | 258 kts | 201° |
| 2026-05-05 03:12 | 36.02883 | -115.27701 | 8729 ft | 253 kts | 201° |
| 2026-05-05 03:12 | 36.01212 | -115.28479 | 9820 ft | 261 kts | 200° |
| 2026-05-05 03:12 | 35.99471 | -115.29274 | 10550 ft | 275 kts | 198° |
| 2026-05-05 03:13 | 35.97530 | -115.29788 | 11105 ft | 296 kts | 191° |
| 2026-05-05 03:13 | 35.95440 | -115.30261 | 11657 ft | 313 kts | 192° |
| 2026-05-05 03:13 | 35.93250 | -115.30779 | 12311 ft | 326 kts | 192° |
| 2026-05-05 03:13 | 35.90998 | -115.31325 | 13132 ft | 332 kts | 192° |
| 2026-05-05 03:14 | 35.88718 | -115.31886 | 13972 ft | 337 kts | 193° |
| 2026-05-05 03:14 | 35.86410 | -115.32458 | 14739 ft | 340 kts | 193° |
| 2026-05-05 03:14 | 35.84079 | -115.33038 | 15546 ft | 343 kts | 193° |
| 2026-05-05 03:14 | 35.81728 | -115.33624 | 16331 ft | 346 kts | 193° |
| 2026-05-05 03:15 | 35.79358 | -115.34214 | 17121 ft | 349 kts | 194° |
| 2026-05-05 03:15 | 35.76970 | -115.34807 | 17894 ft | 351 kts | 194° |
| 2026-05-05 03:15 | 35.75376 | -115.35203 | 18369 ft | 353 kts | 194° |
| 2026-05-05 03:15 | 35.72950 | -115.35806 | 18890 ft | 361 kts | 194° |
| 2026-05-05 03:16 | 35.70430 | -115.36432 | 19028 ft | 378 kts | 194° |
| 2026-05-05 03:16 | 35.67808 | -115.37083 | 19271 ft | 391 kts | 194° |
| 2026-05-05 03:16 | 35.65120 | -115.37749 | 19756 ft | 395 kts | 194° |
| 2026-05-05 03:16 | 35.62415 | -115.38419 | 20331 ft | 398 kts | 194° |
| 2026-05-05 03:17 | 35.59632 | -115.38661 | 20864 ft | 407 kts | 180° |
| 2026-05-05 03:17 | 35.56794 | -115.38457 | 21383 ft | 410 kts | 181° |
| 2026-05-05 03:17 | 35.53925 | -115.38272 | 21812 ft | 415 kts | 181° |
| 2026-05-05 03:17 | 35.51036 | -115.38071 | 21906 ft | 416 kts | 181° |
| 2026-05-05 03:18 | 35.48145 | -115.37864 | 21909 ft | 415 kts | 181° |
| 2026-05-05 03:18 | 35.45280 | -115.37885 | 21896 ft | 409 kts | 192° |
| 2026-05-05 03:18 | 35.42583 | -115.38868 | 21912 ft | 403 kts | 207° |
| 2026-05-05 03:18 | 35.40053 | -115.40350 | 21909 ft | 403 kts | 208° |
| 2026-05-05 03:19 | 35.35073 | -115.43416 | 21919 ft | 397 kts | 209° |
| 2026-05-05 03:19 | 35.32622 | -115.44962 | 21915 ft | 396 kts | 209° |
| 2026-05-05 03:19 | 35.30178 | -115.46515 | 21911 ft | 396 kts | 209° |
| 2026-05-05 03:20 | 35.27733 | -115.48071 | 21904 ft | 396 kts | 209° |
| 2026-05-05 03:20 | 35.25291 | -115.49627 | 21919 ft | 396 kts | 210° |
| 2026-05-05 03:20 | 35.22850 | -115.51183 | 21912 ft | 396 kts | 210° |
| 2026-05-05 03:20 | 35.20406 | -115.52738 | 21911 ft | 396 kts | 210° |
| 2026-05-05 03:21 | 35.17966 | -115.54290 | 21921 ft | 396 kts | 210° |
| 2026-05-05 03:21 | 35.15526 | -115.55842 | 21911 ft | 396 kts | 210° |
| 2026-05-05 03:21 | 35.13115 | -115.57460 | 21894 ft | 394 kts | 216° |
| 2026-05-05 03:21 | 35.11095 | -115.59689 | 21921 ft | 392 kts | 226° |
| 2026-05-05 03:22 | 35.09182 | -115.62068 | 21914 ft | 393 kts | 226° |
| 2026-05-05 03:22 | 35.07277 | -115.64462 | 21906 ft | 393 kts | 226° |
| 2026-05-05 03:22 | 35.05384 | -115.66862 | 21910 ft | 393 kts | 226° |
| 2026-05-05 03:22 | 35.03519 | -115.69237 | 21911 ft | 393 kts | 226° |
| 2026-05-05 03:23 | 35.01630 | -115.71646 | 21904 ft | 392 kts | 226° |
| 2026-05-05 03:23 | 34.99743 | -115.74052 | 21905 ft | 392 kts | 226° |
| 2026-05-05 03:23 | 34.97859 | -115.76455 | 21909 ft | 392 kts | 226° |
| 2026-05-05 03:23 | 34.95974 | -115.78856 | 21896 ft | 392 kts | 226° |
| 2026-05-05 03:24 | 34.94088 | -115.81256 | 21894 ft | 392 kts | 226° |
| 2026-05-05 03:24 | 34.92203 | -115.83655 | 21894 ft | 392 kts | 226° |
| 2026-05-05 03:24 | 34.90319 | -115.86050 | 21895 ft | 392 kts | 226° |
| 2026-05-05 03:24 | 34.88434 | -115.88445 | 21890 ft | 391 kts | 226° |
| 2026-05-05 03:25 | 34.86525 | -115.90868 | 21885 ft | 391 kts | 226° |
| 2026-05-05 03:25 | 34.84665 | -115.93227 | 21893 ft | 391 kts | 226° |
| 2026-05-05 03:25 | 34.82782 | -115.95614 | 21891 ft | 391 kts | 226° |
| 2026-05-05 03:25 | 34.80897 | -115.98003 | 21883 ft | 391 kts | 226° |
| 2026-05-05 03:26 | 34.79014 | -116.00387 | 21889 ft | 391 kts | 226° |
| 2026-05-05 03:26 | 34.77133 | -116.02775 | 21879 ft | 391 kts | 227° |
| 2026-05-05 03:26 | 34.75258 | -116.05169 | 21880 ft | 391 kts | 227° |
| 2026-05-05 03:26 | 34.73379 | -116.07564 | 21891 ft | 391 kts | 227° |
| 2026-05-05 03:27 | 34.71506 | -116.09950 | 21874 ft | 390 kts | 227° |
| 2026-05-05 03:27 | 34.69630 | -116.12337 | 21882 ft | 391 kts | 227° |
| 2026-05-05 03:27 | 34.67754 | -116.14724 | 21877 ft | 390 kts | 227° |
| 2026-05-05 03:27 | 34.65879 | -116.17106 | 21878 ft | 390 kts | 227° |
| 2026-05-05 03:28 | 34.64003 | -116.19488 | 21889 ft | 390 kts | 227° |
| 2026-05-05 03:28 | 34.62127 | -116.21870 | 21899 ft | 390 kts | 226° |
| 2026-05-05 03:28 | 34.60247 | -116.24253 | 21899 ft | 390 kts | 226° |
| 2026-05-05 03:28 | 34.58374 | -116.26628 | 21902 ft | 390 kts | 226° |
| 2026-05-05 03:29 | 34.56496 | -116.29005 | 21911 ft | 390 kts | 226° |
| 2026-05-05 03:29 | 34.54620 | -116.31379 | 21913 ft | 390 kts | 226° |
| 2026-05-05 03:29 | 34.52744 | -116.33751 | 21919 ft | 390 kts | 226° |
| 2026-05-05 03:29 | 34.50867 | -116.36124 | 21915 ft | 390 kts | 226° |
| 2026-05-05 03:30 | 34.48993 | -116.38490 | 21920 ft | 390 kts | 226° |
| 2026-05-05 03:30 | 34.47115 | -116.40861 | 21919 ft | 389 kts | 226° |
| 2026-05-05 03:30 | 34.45236 | -116.43231 | 21915 ft | 390 kts | 226° |
| 2026-05-05 03:30 | 34.43360 | -116.45596 | 21912 ft | 390 kts | 226° |
| 2026-05-05 03:31 | 34.41638 | -116.48121 | 21901 ft | 390 kts | 238° |
| 2026-05-05 03:31 | 34.40382 | -116.51034 | 21909 ft | 391 kts | 241° |
| 2026-05-05 03:31 | 34.39142 | -116.53962 | 21903 ft | 391 kts | 242° |
| 2026-05-05 03:31 | 34.37915 | -116.56898 | 21899 ft | 391 kts | 242° |
| 2026-05-05 03:32 | 34.36694 | -116.59844 | 21897 ft | 392 kts | 242° |
| 2026-05-05 03:32 | 34.35475 | -116.62793 | 21903 ft | 392 kts | 242° |
| 2026-05-05 03:32 | 34.34258 | -116.65741 | 21906 ft | 392 kts | 242° |
| 2026-05-05 03:32 | 34.33056 | -116.68698 | 21916 ft | 392 kts | 243° |
| 2026-05-05 03:33 | 34.31865 | -116.71670 | 21917 ft | 393 kts | 242° |
| 2026-05-05 03:33 | 34.30670 | -116.74643 | 21906 ft | 393 kts | 242° |
| 2026-05-05 03:33 | 34.29473 | -116.77614 | 21952 ft | 393 kts | 243° |
| 2026-05-05 03:33 | 34.28289 | -116.80550 | 21941 ft | 393 kts | 242° |
| 2026-05-05 03:34 | 34.27177 | -116.83306 | 21953 ft | 393 kts | 242° |
| 2026-05-05 03:34 | 34.25977 | -116.86278 | 21950 ft | 393 kts | 242° |
| 2026-05-05 03:34 | 34.24778 | -116.89243 | 21963 ft | 389 kts | 242° |
| 2026-05-05 03:34 | 34.23622 | -116.92101 | 21967 ft | 370 kts | 242° |
| 2026-05-05 03:35 | 34.22509 | -116.94851 | 21757 ft | 358 kts | 242° |
| 2026-05-05 03:35 | 34.21432 | -116.97511 | 21549 ft | 348 kts | 243° |
| 2026-05-05 03:35 | 34.20615 | -117.00258 | 21082 ft | 348 kts | 250° |
| 2026-05-05 03:35 | 34.19888 | -117.03037 | 20630 ft | 345 kts | 249° |
| 2026-05-05 03:36 | 34.19146 | -117.05781 | 20236 ft | 343 kts | 249° |
| 2026-05-05 03:36 | 34.18395 | -117.08511 | 19816 ft | 341 kts | 249° |
| 2026-05-05 03:36 | 34.17640 | -117.11228 | 19401 ft | 340 kts | 249° |
| 2026-05-05 03:36 | 34.16885 | -117.13928 | 18995 ft | 339 kts | 249° |
| 2026-05-05 03:37 | 34.16144 | -117.16629 | 18548 ft | 338 kts | 249° |
| 2026-05-05 03:37 | 34.15408 | -117.19317 | 18120 ft | 337 kts | 249° |
| 2026-05-05 03:37 | 34.14673 | -117.21993 | 17696 ft | 335 kts | 249° |
| 2026-05-05 03:37 | 34.13944 | -117.24646 | 17297 ft | 331 kts | 249° |
| 2026-05-05 03:38 | 34.13219 | -117.27279 | 16890 ft | 329 kts | 249° |
| 2026-05-05 03:38 | 34.12501 | -117.29884 | 16500 ft | 326 kts | 249° |
| 2026-05-05 03:38 | 34.11789 | -117.32466 | 16123 ft | 322 kts | 249° |
| 2026-05-05 03:38 | 34.11085 | -117.35016 | 15753 ft | 319 kts | 250° |
| 2026-05-05 03:39 | 34.10410 | -117.37557 | 15358 ft | 318 kts | 251° |
| 2026-05-05 03:39 | 34.09769 | -117.40127 | 14971 ft | 322 kts | 251° |
| 2026-05-05 03:39 | 34.09116 | -117.42729 | 14599 ft | 326 kts | 251° |
| 2026-05-05 03:39 | 34.08457 | -117.45342 | 14268 ft | 326 kts | 251° |
| 2026-05-05 03:40 | 34.07803 | -117.47929 | 14110 ft | 318 kts | 251° |
| 2026-05-05 03:40 | 34.07165 | -117.50441 | 13885 ft | 311 kts | 251° |
| 2026-05-05 03:40 | 34.06531 | -117.52929 | 13517 ft | 309 kts | 252° |
| 2026-05-05 03:40 | 34.05900 | -117.55402 | 13183 ft | 309 kts | 252° |
| 2026-05-05 03:41 | 34.05268 | -117.57880 | 12839 ft | 309 kts | 252° |
| 2026-05-05 03:41 | 34.04639 | -117.60340 | 12470 ft | 306 kts | 252° |
| 2026-05-05 03:41 | 34.04016 | -117.62776 | 12102 ft | 302 kts | 252° |
| 2026-05-05 03:41 | 34.03406 | -117.65157 | 11749 ft | 299 kts | 252° |
| 2026-05-05 03:42 | 34.02795 | -117.67542 | 11396 ft | 297 kts | 252° |
| 2026-05-05 03:42 | 34.02201 | -117.69944 | 11031 ft | 293 kts | 257° |
| 2026-05-05 03:42 | 34.01940 | -117.72307 | 10647 ft | 283 kts | 263° |
| 2026-05-05 03:42 | 34.01729 | -117.74614 | 10327 ft | 271 kts | 262° |
| 2026-05-05 03:43 | 34.01520 | -117.76834 | 10014 ft | 261 kts | 262° |
| 2026-05-05 03:43 | 34.01314 | -117.78989 | 9647 ft | 260 kts | 262° |
| 2026-05-05 03:43 | 34.01103 | -117.81163 | 9306 ft | 261 kts | 262° |
| 2026-05-05 03:43 | 34.00894 | -117.83319 | 8990 ft | 259 kts | 262° |
| 2026-05-05 03:44 | 34.00684 | -117.85470 | 8651 ft | 258 kts | 262° |
| 2026-05-05 03:44 | 34.00474 | -117.87615 | 8311 ft | 257 kts | 262° |
| 2026-05-05 03:44 | 34.00266 | -117.89743 | 8020 ft | 255 kts | 262° |
| 2026-05-05 03:44 | 34.00059 | -117.91858 | 7697 ft | 254 kts | 262° |
| 2026-05-05 03:45 | 33.99852 | -117.93968 | 7368 ft | 253 kts | 263° |
| 2026-05-05 03:45 | 33.99648 | -117.96042 | 7073 ft | 244 kts | 263° |
| 2026-05-05 03:45 | 33.99454 | -117.98033 | 6792 ft | 235 kts | 263° |
| 2026-05-05 03:45 | 33.99275 | -117.99956 | 6508 ft | 227 kts | 263° |
| 2026-05-05 03:46 | 33.99096 | -118.01824 | 6223 ft | 223 kts | 263° |
| 2026-05-05 03:46 | 33.98914 | -118.03672 | 5967 ft | 222 kts | 263° |
| 2026-05-05 03:46 | 33.98729 | -118.05520 | 5678 ft | 222 kts | 263° |
| 2026-05-05 03:46 | 33.98543 | -118.07359 | 5411 ft | 220 kts | 263° |
| 2026-05-05 03:47 | 33.98359 | -118.09185 | 5140 ft | 219 kts | 263° |
| 2026-05-05 03:47 | 33.98176 | -118.11001 | 4880 ft | 218 kts | 262° |
| 2026-05-05 03:47 | 33.97991 | -118.12815 | 4595 ft | 218 kts | 262° |
| 2026-05-05 03:47 | 33.97807 | -118.14626 | 4311 ft | 217 kts | 263° |
| 2026-05-05 03:48 | 33.97624 | -118.16430 | 4032 ft | 217 kts | 263° |
| 2026-05-05 03:48 | 33.97441 | -118.18228 | 3751 ft | 216 kts | 263° |
| 2026-05-05 03:48 | 33.97258 | -118.20027 | 3470 ft | 216 kts | 263° |
| 2026-05-05 03:48 | 33.97077 | -118.21821 | 3186 ft | 216 kts | 263° |
| 2026-05-05 03:49 | 33.96900 | -118.23565 | 2926 ft | 203 kts | 263° |
| 2026-05-05 03:49 | 33.96733 | -118.25207 | 2641 ft | 193 kts | 263° |
| 2026-05-05 03:49 | 33.96572 | -118.26793 | 2387 ft | 188 kts | 263° |
| 2026-05-05 03:49 | 33.96417 | -118.28318 | 2162 ft | 173 kts | 263° |
| 2026-05-05 03:50 | 33.96279 | -118.29671 | 1943 ft | 152 kts | 263° |
| 2026-05-05 03:50 | 33.96157 | -118.30869 | 1730 ft | 139 kts | 263° |
| 2026-05-05 03:50 | 33.96040 | -118.32025 | 1533 ft | 138 kts | 263° |
| 2026-05-05 03:50 | 33.95924 | -118.33166 | 1335 ft | 137 kts | 263° |
| 2026-05-05 03:51 | 33.95809 | -118.34298 | 1141 ft | 138 kts | 263° |
| 2026-05-05 03:51 | 33.95691 | -118.35459 | 955 ft | 137 kts | 264° |
| 2026-05-05 03:51 | 33.95576 | -118.36602 | 764 ft | 138 kts | 261° |
| 2026-05-05 03:51 | 33.95457 | -118.37753 | 557 ft | 138 kts | 261° |
| 2026-05-05 03:52 | 33.95343 | -118.38891 | 368 ft | 139 kts | 261° |
| 2026-05-05 03:52 | 33.95224 | -118.40057 | 198 ft | 138 kts | 261° |
| 2026-05-05 03:52 | 33.95113 | -118.41132 | 127 ft | 114 kts | 263° |
| 2026-05-05 03:52 | 33.95048 | -118.41806 | 124 ft | 58 kts | 263° |
| 2026-05-05 03:53 | 33.94996 | -118.42285 | 128 ft | 57 kts | 262° |
| 2026-05-05 03:53 | 33.94883 | -118.42633 | 126 ft | 33 kts | 234° |
| 2026-05-05 03:53 | 33.94848 | -118.42685 | 127 ft | 1 kts | 224° |
| 2026-05-05 03:53 | 33.94786 | -118.42739 | 126 ft | 22 kts | 209° |
| 2026-05-05 03:54 | 33.94639 | -118.42733 | 125 ft | 22 kts | 112° |
| 2026-05-05 03:54 | 33.94655 | -118.42498 | 128 ft | 39 kts | 83° |
| 2026-05-05 03:54 | 33.94694 | -118.42142 | 128 ft | 45 kts | 83° |
| 2026-05-05 03:54 | 33.94733 | -118.41764 | 126 ft | 46 kts | 83° |
| 2026-05-05 03:55 | 33.94777 | -118.41394 | 124 ft | 43 kts | 78° |
| 2026-05-05 03:55 | 33.94821 | -118.41032 | 126 ft | 44 kts | 82° |
| 2026-05-05 03:55 | 33.94858 | -118.40658 | 128 ft | 46 kts | 82° |
| 2026-05-05 03:55 | 33.94888 | -118.40339 | 125 ft | 19 kts | 107° |
| 2026-05-05 03:56 | 33.94770 | -118.40268 | 125 ft | 20 kts | 166° |
| 2026-05-05 03:56 | 33.94724 | -118.40203 | 125 ft | 3 kts | 83° |
| 2026-05-05 03:56 | 33.94724 | -118.40202 | 125 ft | 0 kts | 83° |